createdAt,value
2023-04-15T00:01:55.093Z,42.63
2023-04-15T00:04:28.467Z,43.32
2023-04-15T00:07:05.525Z,42.56
2023-04-15T00:09:49.960Z,42.69
2023-04-15T00:12:22.524Z,42.84
2023-04-15T00:14:57.097Z,42.96
2023-04-15T00:17:29.999Z,43.31
2023-04-15T00:20:16.882Z,42.93
2023-04-15T00:22:54.754Z,42.71
2023-04-15T00:25:47.854Z,43.71
2023-04-15T00:28:41.986Z,42.67
2023-04-15T00:31:17.568Z,42.63
2023-04-15T00:37:32.752Z,43.33
2023-04-15T00:40:36.415Z,42.57
2023-04-15T00:43:27.787Z,43.91
2023-04-15T00:46:24.727Z,42.64
2023-04-15T00:48:57.893Z,42.94
2023-04-15T00:55:26.061Z,42.82
2023-04-15T00:58:49.088Z,43.46
2023-04-15T01:02:24.127Z,42.79
2023-04-15T01:05:01.981Z,42.58
2023-04-15T01:07:48.101Z,42.81
2023-04-15T01:10:33.635Z,42.73
2023-04-15T01:13:28.231Z,43.40
2023-04-15T01:16:21.602Z,42.69
2023-04-15T01:28:41.687Z,42.76
2023-04-15T01:31:27.646Z,42.77
2023-04-15T01:44:40.842Z,42.91
2023-04-15T01:47:32.307Z,42.81
2023-04-15T01:50:05.548Z,43.44
2023-04-15T01:52:38.237Z,43.09
2023-04-15T01:59:26.407Z,42.79
2023-04-15T02:01:59.801Z,42.74
2023-04-15T02:04:41.072Z,43.78
2023-04-15T02:07:32.653Z,43.86
2023-04-15T02:10:05.562Z,43.49
2023-04-15T02:12:38.100Z,43.75
2023-04-15T02:15:26.047Z,43.80
2023-04-15T02:18:10.887Z,43.21
2023-04-15T02:32:58.361Z,43.66
2023-04-15T02:37:40.219Z,43.70
2023-04-15T02:39:08.094Z,43.44
2023-04-15T02:41:43.961Z,43.53
2023-04-15T02:44:43.006Z,43.96
2023-04-15T02:47:26.390Z,43.74
2023-04-15T02:50:01.811Z,44.03
2023-04-15T02:52:34.440Z,43.42
2023-04-15T02:55:09.893Z,43.82
2023-04-15T02:57:42.482Z,43.45
2023-04-15T03:03:28.287Z,43.89
2023-04-15T03:09:48.474Z,42.82
2023-04-15T03:12:27.807Z,43.16
2023-04-15T03:18:13.061Z,43.16
2023-04-15T03:20:57.793Z,44.06
2023-04-15T03:23:56.700Z,43.79
2023-04-15T03:26:30.520Z,42.84
2023-04-15T03:29:22.345Z,42.78
2023-04-15T03:32:00.701Z,43.60
2023-04-15T03:34:42.359Z,43.01
2023-04-15T03:43:08.372Z,43.90
2023-04-15T03:46:08.377Z,43.12
2023-04-15T03:48:40.969Z,43.83
2023-04-15T03:51:31.771Z,43.85
2023-04-15T03:54:06.953Z,42.97
2023-04-15T03:57:46.538Z,43.87
2023-04-15T04:00:19.828Z,43.92
2023-04-15T04:02:52.619Z,43.05
2023-04-15T04:05:41.649Z,43.29
2023-04-15T04:14:34.105Z,43.14
2023-04-15T04:20:48.628Z,43.38
2023-04-15T04:26:42.540Z,43.16
2023-04-15T04:29:47.775Z,43.48
2023-04-15T04:32:23.828Z,43.86
2023-04-15T04:34:56.633Z,42.95
2023-04-15T04:37:29.209Z,43.37
2023-04-15T04:40:27.034Z,43.06
2023-04-15T04:43:24.034Z,43.96
2023-04-15T04:46:08.715Z,43.63
2023-04-15T04:48:56.095Z,43.71
2023-04-15T04:51:57.988Z,43.30
2023-04-15T04:54:31.609Z,43.04
2023-04-15T04:57:16.637Z,43.09
2023-04-15T04:59:52.225Z,43.59
2023-04-15T05:02:27.959Z,44.01
2023-04-15T05:05:22.936Z,43.91
2023-04-15T05:08:01.652Z,43.28
2023-04-15T05:10:58.209Z,43.07
2023-04-15T05:13:38.757Z,42.98
2023-04-15T05:16:26.178Z,43.15
2023-04-15T05:18:58.991Z,43.19
2023-04-15T05:21:41.427Z,43.06
2023-04-15T05:24:19.465Z,43.50
2023-04-15T05:27:11.982Z,43.17
2023-04-15T05:29:53.671Z,43.18
2023-04-15T05:32:33.230Z,43.23
2023-04-15T05:35:11.619Z,43.29
2023-04-15T05:37:50.158Z,43.11
2023-04-15T05:40:23.151Z,43.01
2023-04-15T05:45:34.244Z,43.78
2023-04-15T05:48:39.473Z,43.10
2023-04-15T05:51:20.729Z,43.63
2023-04-15T05:53:53.405Z,43.27
2023-04-15T05:56:41.187Z,43.58
2023-04-15T05:59:17.254Z,44.08
2023-04-15T06:01:52.176Z,43.09
2023-04-15T06:05:30.073Z,43.09
2023-04-15T06:11:59.034Z,43.40
2023-04-15T06:15:09.879Z,43.97
2023-04-15T06:17:42.464Z,44.10
2023-04-15T06:20:15.173Z,43.20
2023-04-15T06:22:59.479Z,42.96
2023-04-15T06:25:47.293Z,44.17
2023-04-15T06:28:19.839Z,44.17
2023-04-15T06:30:53.464Z,43.99
2023-04-15T06:33:25.995Z,43.02
2023-04-15T06:35:58.508Z,44.01
2023-04-15T06:38:52.462Z,42.82
2023-04-15T06:41:25.131Z,43.09
2023-04-15T06:43:57.993Z,43.51
2023-04-15T06:46:48.751Z,43.23
2023-04-15T06:49:21.228Z,42.81
2023-04-15T06:51:53.828Z,43.23
2023-04-15T06:54:32.493Z,42.72
2023-04-15T06:57:07.497Z,42.81
2023-04-15T06:59:40.085Z,43.69
2023-04-15T07:02:28.048Z,43.07
2023-04-15T07:07:50.252Z,43.32
2023-04-15T07:13:13.745Z,42.50
2023-04-15T07:15:46.565Z,43.42
2023-04-15T07:18:19.332Z,43.35
2023-04-15T07:20:52.300Z,42.49
2023-04-15T07:23:25.876Z,43.40
2023-04-15T07:25:58.389Z,43.48
2023-04-15T07:28:31.022Z,42.84
2023-04-15T07:31:17.038Z,42.67
2023-04-15T07:33:58.566Z,43.57
2023-04-15T07:36:52.716Z,43.49
2023-04-15T07:39:25.951Z,42.59
2023-04-15T07:44:52.268Z,42.30
2023-04-15T07:47:40.869Z,43.19
2023-04-15T07:50:13.430Z,43.20
2023-04-15T07:52:46.532Z,42.04
2023-04-15T07:55:37.655Z,42.24
2023-04-15T07:58:10.434Z,42.52
2023-04-15T08:00:57.136Z,41.88
2023-04-15T08:03:29.896Z,43.30
2023-04-15T08:06:20.728Z,41.92
2023-04-15T08:09:11.431Z,41.82
2023-04-15T08:11:44.111Z,42.46
2023-04-15T08:14:17.111Z,41.83
2023-04-15T08:17:04.444Z,42.29
2023-04-15T08:19:40.859Z,42.29
2023-04-15T08:22:28.795Z,42.15
2023-04-15T08:25:01.595Z,42.10
2023-04-15T08:27:35.080Z,42.77
2023-04-15T08:30:08.570Z,42.17
2023-04-15T08:33:00.690Z,42.17
2023-04-15T08:38:28.162Z,41.94
2023-04-15T08:44:18.091Z,42.51
2023-04-15T08:46:52.616Z,42.27
2023-04-15T08:49:41.281Z,42.00
2023-04-15T08:52:14.404Z,42.25
2023-04-15T08:54:58.909Z,42.00
2023-04-15T08:57:31.607Z,41.71
2023-04-15T09:04:08.137Z,41.81
2023-04-15T09:06:59.883Z,41.81
2023-04-15T09:09:32.889Z,41.43
2023-04-15T09:12:14.804Z,41.68
2023-04-15T09:15:03.328Z,41.94
2023-04-15T09:18:13.878Z,42.46
2023-04-15T09:20:46.808Z,41.85
2023-04-15T09:23:32.547Z,42.24
2023-04-15T09:26:20.398Z,42.48
2023-04-15T09:29:10.316Z,41.90
2023-04-15T09:31:54.529Z,41.81
2023-04-15T09:34:36.915Z,41.74
2023-04-15T09:37:31.749Z,41.46
2023-04-15T09:40:35.143Z,41.49
2023-04-15T09:45:58.985Z,41.70
2023-04-15T09:48:31.585Z,41.61
2023-04-15T09:54:21.668Z,41.93
2023-04-15T09:57:10.378Z,42.28
2023-04-15T09:59:43.008Z,42.06
2023-04-15T10:02:16.464Z,41.96
2023-04-15T10:04:49.729Z,42.40
2023-04-15T10:07:26.162Z,42.61
2023-04-15T10:10:02.367Z,41.94
2023-04-15T10:12:37.618Z,42.53
2023-04-15T10:15:29.958Z,42.76
2023-04-15T10:18:05.624Z,41.76
2023-04-15T10:20:38.798Z,41.90
2023-04-15T10:23:13.425Z,41.90
2023-04-15T10:26:04.293Z,41.63
2023-04-15T10:28:37.172Z,41.64
2023-04-15T10:31:12.967Z,41.99
2023-04-15T10:33:47.684Z,42.44
2023-04-15T10:36:23.265Z,42.55
2023-04-15T10:38:55.725Z,42.59
2023-04-15T10:41:34.400Z,41.83
2023-04-15T10:44:22.370Z,41.84
2023-04-15T10:46:58.571Z,41.90
2023-04-15T10:49:31.164Z,41.43
2023-04-15T10:52:03.621Z,42.65
2023-04-15T10:54:38.837Z,42.08
2023-04-15T10:57:35.371Z,41.28
2023-04-15T11:00:18.996Z,42.50
2023-04-15T11:03:08.448Z,42.12
2023-04-15T11:06:04.055Z,41.34
2023-04-15T11:08:56.730Z,41.74
2023-04-15T11:12:10.515Z,41.74
2023-04-15T11:14:55.504Z,42.31
2023-04-15T11:17:31.409Z,41.73
2023-04-15T11:20:05.649Z,41.91
2023-04-15T11:23:12.977Z,42.18
2023-04-15T11:25:48.498Z,41.60
2023-04-15T11:28:21.240Z,42.21
2023-04-15T11:30:55.538Z,41.35
2023-04-15T11:33:37.448Z,41.58
2023-04-15T11:36:12.651Z,41.72
2023-04-15T11:38:47.635Z,41.78
2023-04-15T11:41:29.347Z,41.14
2023-04-15T11:44:16.602Z,41.87
2023-04-15T11:46:49.107Z,41.71
2023-04-15T11:49:42.808Z,41.73
2023-04-15T11:52:15.356Z,41.80
2023-04-15T11:54:47.821Z,41.57
2023-04-15T11:57:20.455Z,41.53
2023-04-15T11:59:55.387Z,42.36
2023-04-15T12:02:37.646Z,41.87
2023-04-15T12:05:12.068Z,41.45
2023-04-15T12:08:09.168Z,42.17
2023-04-15T12:10:41.681Z,41.12
2023-04-15T12:13:14.812Z,41.53
2023-04-15T12:16:03.663Z,41.59
2023-04-15T12:18:42.133Z,42.32
2023-04-15T12:21:14.696Z,41.73
2023-04-15T12:23:58.144Z,41.42
2023-04-15T12:27:03.817Z,41.43
2023-04-15T12:29:41.739Z,41.76
2023-04-15T12:32:16.573Z,42.36
2023-04-15T12:34:54.492Z,41.71
2023-04-15T12:37:27.193Z,42.05
2023-04-15T12:40:02.857Z,41.26
2023-04-15T12:42:35.598Z,41.26
2023-04-15T12:45:11.538Z,41.64
2023-04-15T12:47:44.050Z,41.39
2023-04-15T12:50:17.800Z,41.52
2023-04-15T12:52:50.351Z,41.78
2023-04-15T12:55:31.903Z,41.72
2023-04-15T12:58:04.479Z,41.70
2023-04-15T13:00:37.416Z,41.16
2023-04-15T13:03:10.387Z,41.63
2023-04-15T13:05:45.970Z,41.50
2023-04-15T13:08:21.880Z,40.94
2023-04-15T13:10:54.464Z,41.38
2023-04-15T13:13:27.408Z,41.95
2023-04-15T13:16:00.188Z,41.16
2023-04-15T13:21:27.788Z,41.65
2023-04-15T13:24:04.524Z,42.08
2023-04-15T13:26:40.504Z,41.22
2023-04-15T13:29:14.167Z,41.51
2023-04-15T13:31:46.789Z,41.37
2023-04-15T13:34:19.489Z,41.06
2023-04-15T13:36:52.844Z,41.12
2023-04-15T13:39:28.182Z,40.82
2023-04-15T13:42:12.042Z,41.70
2023-04-15T13:44:44.728Z,41.46
2023-04-15T13:47:19.113Z,41.92
2023-04-15T13:49:57.726Z,41.39
2023-04-15T13:58:06.213Z,41.52
2023-04-15T14:00:38.737Z,41.25
2023-04-15T14:03:11.420Z,41.56
2023-04-15T14:05:56.033Z,41.08
2023-04-15T14:08:28.544Z,40.94
2023-04-15T14:11:01.300Z,41.61
2023-04-15T14:13:36.882Z,41.33
2023-04-15T14:16:15.620Z,41.31
2023-04-15T14:18:48.247Z,41.30
2023-04-15T14:21:21.141Z,41.16
2023-04-15T14:23:54.190Z,41.43
2023-04-15T14:26:26.893Z,41.85
2023-04-15T14:28:59.704Z,40.87
2023-04-15T14:31:32.179Z,41.93
2023-04-15T14:36:59.916Z,40.85
2023-04-15T14:39:32.508Z,41.85
2023-04-15T14:42:17.192Z,40.73
2023-04-15T14:44:50.557Z,41.06
2023-04-15T14:50:15.673Z,41.82
2023-04-15T14:52:48.188Z,41.22
2023-04-15T14:55:20.685Z,41.30
2023-04-15T14:57:53.227Z,41.44
2023-04-15T15:00:27.942Z,41.03
2023-04-15T15:03:00.769Z,41.21
2023-04-15T15:05:34.856Z,41.52
2023-04-15T15:08:08.947Z,41.45
2023-04-15T15:10:48.641Z,41.14
2023-04-15T15:13:22.678Z,41.89
2023-04-15T15:15:55.353Z,41.13
2023-04-15T15:18:31.556Z,41.36
2023-04-15T15:21:04.347Z,40.97
2023-04-15T15:23:37.171Z,42.05
2023-04-15T15:26:09.822Z,41.93
2023-04-15T15:28:42.470Z,41.83
2023-04-15T15:31:14.945Z,41.74
2023-04-15T15:33:47.515Z,41.41
2023-04-15T15:36:20.034Z,41.30
2023-04-15T15:38:52.860Z,41.24
2023-04-15T15:41:25.978Z,41.46
2023-04-15T15:44:07.288Z,40.72
2023-04-15T15:46:40.140Z,41.19
2023-04-15T15:49:12.786Z,41.75
2023-04-15T15:51:58.672Z,41.31
2023-04-15T15:54:35.475Z,41.50
2023-04-15T15:57:15.115Z,41.75
2023-04-15T15:59:47.612Z,41.35
2023-04-15T16:02:34.877Z,41.52
2023-04-15T16:05:13.760Z,41.01
2023-04-15T16:07:49.185Z,42.06
2023-04-15T16:10:21.690Z,41.07
2023-04-15T16:15:58.588Z,41.02
2023-04-15T16:18:32.026Z,41.33
2023-04-15T16:21:16.790Z,41.83
2023-04-15T16:23:49.258Z,41.47
2023-04-15T16:26:21.818Z,41.47
2023-04-15T16:28:54.408Z,42.04
2023-04-15T16:31:27.046Z,41.31
2023-04-15T16:33:59.608Z,41.70
2023-04-15T16:36:36.095Z,41.28
2023-04-15T16:39:08.583Z,41.38
2023-04-15T16:41:42.620Z,42.53
2023-04-15T16:44:15.226Z,42.38
2023-04-15T16:49:36.925Z,42.11
2023-04-15T16:52:09.758Z,41.65
2023-04-15T16:54:47.121Z,42.27
2023-04-15T16:57:19.812Z,41.38
2023-04-15T16:59:52.303Z,41.66
2023-04-15T17:02:25.241Z,41.28
2023-04-15T17:04:57.902Z,42.21
2023-04-15T17:07:40.513Z,42.28
2023-04-15T17:10:16.252Z,42.48
2023-04-15T17:12:52.408Z,42.48
2023-04-15T17:15:31.327Z,42.44
2023-04-15T17:18:06.649Z,41.58
2023-04-15T17:20:42.378Z,41.46
2023-04-15T17:23:15.544Z,42.76
2023-04-15T17:26:03.383Z,42.32
2023-04-15T17:28:44.709Z,42.48
2023-04-15T17:31:19.674Z,41.86
2023-04-15T17:34:07.405Z,42.28
2023-04-15T17:36:53.623Z,42.30
2023-04-15T17:39:26.485Z,42.58
2023-04-15T17:41:59.056Z,41.97
2023-04-15T17:44:40.795Z,42.81
2023-04-15T17:47:37.471Z,42.61
2023-04-15T17:50:10.249Z,41.93
2023-04-15T17:52:58.506Z,42.81
2023-04-15T17:55:46.225Z,42.45
2023-04-15T17:58:45.803Z,41.87
2023-04-15T18:01:19.524Z,42.11
2023-04-15T18:04:17.733Z,42.70
2023-04-15T18:07:02.321Z,42.85
2023-04-15T18:09:41.605Z,42.46
2023-04-15T18:12:14.251Z,41.83
2023-04-15T18:14:55.791Z,42.33
2023-04-15T18:17:34.341Z,42.72
2023-04-15T18:20:07.494Z,43.04
2023-04-15T18:22:43.514Z,41.98
2023-04-15T18:25:16.404Z,42.49
2023-04-15T18:31:03.820Z,41.75
2023-04-15T18:33:36.392Z,42.09
2023-04-15T18:36:10.045Z,42.98
2023-04-15T18:38:42.641Z,42.83
2023-04-15T18:41:15.261Z,42.06
2023-04-15T18:44:00.745Z,41.94
2023-04-15T18:46:33.577Z,42.40
2023-04-15T18:49:07.370Z,42.11
2023-04-15T18:51:50.113Z,42.66
2023-04-15T18:54:42.746Z,42.10
2023-04-15T18:57:20.335Z,42.67
2023-04-15T18:59:57.829Z,42.75
2023-04-15T19:02:30.646Z,42.43
2023-04-15T19:05:18.997Z,42.25
2023-04-15T19:08:00.672Z,42.58
2023-04-15T19:10:53.006Z,43.10
2023-04-15T19:13:41.140Z,42.23
2023-04-15T19:16:49.277Z,42.44
2023-04-15T19:19:21.917Z,43.07
2023-04-15T19:22:13.475Z,42.95
2023-04-15T19:24:46.297Z,42.41
2023-04-15T19:27:19.156Z,42.94
2023-04-15T19:30:14.146Z,42.28
2023-04-15T19:32:46.679Z,42.89
2023-04-15T19:35:26.685Z,43.46
2023-04-15T19:38:10.737Z,42.45
2023-04-15T19:40:43.476Z,42.67
2023-04-15T19:43:17.088Z,43.57
2023-04-15T19:49:01.786Z,42.54
2023-04-15T19:52:21.061Z,42.59
2023-04-15T19:55:14.736Z,43.41
2023-04-15T19:57:47.281Z,42.99
2023-04-15T20:00:20.050Z,43.48
2023-04-15T20:03:09.927Z,43.49
2023-04-15T20:05:54.363Z,43.17
2023-04-15T20:08:45.562Z,42.45
2023-04-15T20:11:18.096Z,42.62
2023-04-15T20:14:07.300Z,43.63
2023-04-15T20:19:36.457Z,43.19
2023-04-15T20:22:33.187Z,43.67
2023-04-15T20:25:06.284Z,42.83
2023-04-15T20:27:52.169Z,43.81
2023-04-15T20:31:32.056Z,43.02
2023-04-15T20:43:49.030Z,43.45
2023-04-15T20:46:22.014Z,43.76
2023-04-15T20:48:55.807Z,43.11
2023-04-15T20:56:32.093Z,43.23
2023-04-15T21:02:57.603Z,43.02
2023-04-15T21:05:51.840Z,43.84
2023-04-15T21:08:29.375Z,43.44
2023-04-15T21:13:34.449Z,43.13
2023-04-15T21:16:14.119Z,44.18
2023-04-15T21:18:46.742Z,44.04
2023-04-15T21:21:19.281Z,44.25
2023-04-15T21:23:53.839Z,44.05
2023-04-15T21:26:35.844Z,44.14
2023-04-15T21:29:28.567Z,43.98
2023-04-15T21:32:01.389Z,44.19
2023-04-15T21:34:34.124Z,43.98
2023-04-15T21:37:06.713Z,43.65
2023-04-15T21:39:39.318Z,43.96
2023-04-15T21:42:11.985Z,43.32
2023-04-15T21:44:44.591Z,44.27
2023-04-15T21:48:01.399Z,44.09
2023-04-15T21:50:41.293Z,44.12
2023-04-15T21:53:13.937Z,43.89
2023-04-15T21:56:10.102Z,43.72
2023-04-15T21:58:43.184Z,43.46
2023-04-15T22:04:22.087Z,44.21
2023-04-15T22:06:55.827Z,44.17
2023-04-15T22:10:20.330Z,43.60
2023-04-15T22:12:52.968Z,44.15
2023-04-15T22:19:02.152Z,43.60
2023-04-15T22:22:05.176Z,43.49
2023-04-15T22:24:39.595Z,43.48
2023-04-15T22:27:21.989Z,44.46
2023-04-15T22:29:54.789Z,43.61
2023-04-15T22:35:44.339Z,43.63
2023-04-15T22:38:16.876Z,44.13
2023-04-15T22:40:58.686Z,44.69
2023-04-15T22:47:06.080Z,44.46
2023-04-15T22:53:32.336Z,44.41
2023-04-15T22:56:27.698Z,43.85
2023-04-15T22:59:00.546Z,43.71
2023-04-15T23:09:39.840Z,44.38
2023-04-15T23:12:14.246Z,43.69
2023-04-15T23:14:47.873Z,44.61
2023-04-15T23:17:23.444Z,43.85
2023-04-15T23:19:59.109Z,43.69
2023-04-15T23:22:37.814Z,43.96
2023-04-15T23:29:04.252Z,44.46
2023-04-15T23:31:37.126Z,44.63
2023-04-15T23:34:33.028Z,44.50
2023-04-15T23:37:24.210Z,43.76
2023-04-15T23:43:22.186Z,44.80
2023-04-15T23:48:57.234Z,44.13
2023-04-15T23:51:31.366Z,43.84
2023-04-15T23:54:54.193Z,44.42
2023-04-15T23:57:35.594Z,43.95
